Terminal Aerodrome Forecast
Issued by NWS Melbourne, FL

Home | Current Version | Previous Version | Text Only | Print | Product List | Glossary On
Versions: 1 2 3 4 5 6 7 8 9 10 11 12 13 14 15 16 17 18 19 20
000
FTUS42 KMLB 020542 RRA
TAFVRB
TAF
KVRB 020542Z 0206/0306 20003KT P6SM FEW120 BKN250
     FM021400 17006KT P6SM FEW030 SCT250
     FM021700 11010KT P6SM VCTS SCT030CB BKN100
     FM022100 12007KT P6SM SCT100 BKN250
     FM030200 17004KT P6SM BKN250=

USA.gov is the U.S. government's official web portal to all federal, state and local government web resources and services.